createdAt,value
2018-03-28T00:01:40.549Z,28.17
2018-03-28T00:04:08.961Z,29.23
2018-03-28T00:06:37.428Z,30.50
2018-03-28T00:09:06.626Z,27.17
2018-03-28T00:11:35.034Z,29.70
2018-03-28T00:14:03.483Z,30.27
2018-03-28T00:16:31.917Z,30.00
2018-03-28T00:19:00.326Z,31.10
2018-03-28T00:21:28.781Z,29.57
2018-03-28T00:23:57.191Z,29.80
2018-03-28T00:26:25.603Z,30.73
2018-03-28T00:28:54.161Z,30.77
2018-03-28T00:31:22.565Z,30.47
2018-03-28T00:33:50.978Z,31.43
2018-03-28T00:36:19.438Z,31.77
2018-03-28T00:38:47.886Z,29.83
2018-03-28T00:41:16.294Z,32.23
2018-03-28T00:43:44.767Z,32.57
2018-03-28T00:46:13.178Z,32.37
2018-03-28T00:48:41.586Z,33.67
2018-03-28T00:51:21.706Z,30.83
2018-03-28T00:53:50.122Z,32.70
2018-03-28T00:56:18.548Z,32.17
2018-03-28T00:58:47.010Z,34.03
2018-03-28T01:01:15.426Z,33.43
2018-03-28T01:03:43.857Z,33.47
2018-03-28T01:06:12.327Z,36.10
2018-03-28T01:08:40.734Z,35.07
2018-03-28T01:11:09.157Z,34.40
2018-03-28T01:13:37.621Z,33.10
2018-03-28T01:16:06.031Z,34.77
2018-03-28T01:18:34.445Z,34.37
2018-03-28T01:21:02.910Z,35.47
2018-03-28T01:23:31.317Z,35.80
2018-03-28T01:25:59.742Z,35.43
2018-03-28T01:28:28.204Z,34.83
2018-03-28T01:30:56.614Z,35.90
2018-03-28T01:33:25.026Z,37.50
2018-03-28T01:35:53.477Z,35.77
2018-03-28T01:38:21.881Z,34.20
2018-03-28T01:40:50.289Z,35.23
2018-03-28T01:43:18.753Z,35.90
2018-03-28T01:45:47.157Z,37.03
2018-03-28T01:48:15.566Z,36.40
2018-03-28T01:50:44.037Z,37.73
2018-03-28T01:53:12.450Z,35.73
2018-03-28T01:55:40.857Z,34.37
2018-03-28T01:58:09.305Z,34.57
2018-03-28T02:00:37.711Z,35.03
2018-03-28T02:03:06.154Z,34.77
2018-03-28T02:05:34.617Z,33.63
2018-03-28T02:08:03.037Z,34.47
2018-03-28T02:10:31.441Z,34.53
2018-03-28T02:12:59.896Z,34.70
2018-03-28T02:15:28.306Z,33.03
2018-03-28T02:17:56.730Z,32.47
2018-03-28T02:20:25.201Z,32.80
2018-03-28T02:22:53.619Z,33.10
2018-03-28T02:25:22.025Z,33.77
2018-03-28T02:27:50.493Z,33.97
2018-03-28T02:30:18.894Z,33.23
2018-03-28T02:32:47.314Z,33.90
2018-03-28T02:35:15.793Z,35.73
2018-03-28T02:37:44.207Z,33.67
2018-03-28T02:40:12.617Z,32.33
2018-03-28T02:42:41.100Z,35.03
2018-03-28T02:45:09.521Z,33.87
2018-03-28T02:47:37.934Z,36.53
2018-03-28T02:50:06.394Z,34.40
2018-03-28T02:52:34.814Z,33.53
2018-03-28T02:55:03.222Z,34.67
2018-03-28T02:57:31.681Z,34.77
2018-03-28T03:00:00.090Z,34.90
2018-03-28T03:02:28.501Z,31.83
2018-03-28T03:04:56.962Z,33.77
2018-03-28T03:07:25.370Z,32.77
2018-03-28T03:09:53.803Z,33.80
2018-03-28T03:12:22.285Z,32.80
2018-03-28T03:14:50.693Z,34.13
2018-03-28T03:17:19.102Z,33.77
2018-03-28T03:19:47.556Z,33.23
2018-03-28T03:22:15.966Z,33.83
2018-03-28T03:24:44.378Z,31.87
2018-03-28T03:27:12.863Z,34.80
2018-03-28T03:29:41.274Z,32.00
2018-03-28T03:32:09.690Z,34.47
2018-03-28T03:34:38.160Z,32.67
2018-03-28T03:37:06.594Z,34.50
2018-03-28T03:39:35.014Z,33.67
2018-03-28T03:42:03.484Z,33.57
2018-03-28T03:44:31.894Z,34.60
2018-03-28T03:47:00.305Z,34.20
2018-03-28T03:49:28.762Z,34.97
2018-03-28T03:51:57.188Z,35.70
2018-03-28T03:54:25.597Z,32.93
2018-03-28T03:56:54.054Z,32.20
2018-03-28T03:59:22.457Z,32.83
2018-03-28T04:01:50.888Z,35.57
2018-03-28T04:04:19.372Z,34.00
2018-03-28T04:06:47.810Z,34.03
2018-03-28T04:09:16.249Z,36.30
2018-03-28T04:11:44.758Z,34.70
2018-03-28T04:14:13.199Z,36.87
2018-03-28T04:16:41.646Z,36.13
2018-03-28T04:19:10.131Z,36.70
2018-03-28T04:21:38.575Z,37.53
2018-03-28T04:24:07.010Z,35.00
2018-03-28T04:26:35.502Z,37.67
2018-03-28T04:29:03.937Z,35.47
2018-03-28T04:31:32.378Z,35.27
2018-03-28T04:34:00.874Z,36.53
2018-03-28T04:36:29.313Z,35.83
2018-03-28T04:38:57.758Z,37.60
2018-03-28T04:41:26.250Z,36.50
2018-03-28T04:43:54.686Z,37.13
2018-03-28T04:46:23.160Z,36.83
2018-03-28T04:48:51.665Z,36.73
2018-03-28T04:51:20.102Z,36.83
2018-03-28T04:53:48.620Z,35.20
2018-03-28T04:56:17.285Z,36.63
2018-03-28T04:58:45.725Z,36.87
2018-03-28T05:03:52.529Z,37.40
2018-03-28T05:06:20.939Z,35.57
2018-03-28T05:08:49.347Z,36.93
2018-03-28T05:11:17.809Z,37.03
2018-03-28T05:13:46.222Z,34.03
2018-03-28T05:16:14.629Z,36.87
2018-03-28T05:18:43.082Z,36.40
2018-03-28T05:21:11.490Z,34.73
2018-03-28T05:23:39.898Z,34.33
2018-03-28T05:26:08.354Z,34.83
2018-03-28T05:28:36.757Z,36.60
2018-03-28T05:31:05.210Z,33.40
2018-03-28T05:33:33.691Z,35.27
2018-03-28T05:36:02.166Z,33.80
2018-03-28T05:38:30.569Z,33.67
2018-03-28T05:40:59.030Z,32.93
2018-03-28T05:43:27.441Z,36.00
2018-03-28T05:45:55.846Z,36.03
2018-03-28T05:48:24.294Z,34.80
2018-03-28T05:50:52.701Z,32.80
2018-03-28T05:53:21.114Z,35.10
2018-03-28T05:55:49.606Z,34.67
2018-03-28T05:58:18.277Z,34.97
2018-03-28T06:00:46.687Z,35.20
2018-03-28T06:03:15.156Z,31.93
2018-03-28T06:05:43.578Z,33.93
2018-03-28T06:08:11.978Z,33.13
2018-03-28T06:10:40.525Z,35.00
2018-03-28T06:13:08.941Z,33.87
2018-03-28T06:15:37.357Z,32.40
2018-03-28T06:18:05.809Z,32.63
2018-03-28T06:20:34.215Z,31.47
2018-03-28T06:23:02.626Z,30.37
2018-03-28T06:25:31.074Z,33.17
2018-03-28T06:27:59.495Z,32.73
2018-03-28T06:30:27.909Z,32.87
2018-03-28T06:32:56.373Z,32.17
2018-03-28T06:35:24.777Z,32.77
2018-03-28T06:37:53.183Z,32.40
2018-03-28T06:40:21.644Z,33.13
2018-03-28T06:42:50.049Z,32.57
2018-03-28T06:45:18.458Z,32.77
2018-03-28T06:47:46.929Z,32.03
2018-03-28T06:50:15.334Z,32.40
2018-03-28T06:52:43.754Z,30.37
2018-03-28T06:55:12.222Z,30.30
2018-03-28T06:57:40.638Z,31.33
2018-03-28T07:00:09.045Z,31.93
2018-03-28T07:02:37.493Z,32.10
2018-03-28T07:05:05.903Z,31.83
2018-03-28T07:07:34.377Z,31.07
2018-03-28T07:10:02.814Z,32.37
2018-03-28T07:12:31.217Z,31.73
2018-03-28T07:14:59.654Z,32.07
2018-03-28T07:17:28.114Z,37.47
2018-03-28T07:19:56.530Z,32.17
2018-03-28T07:22:24.947Z,32.53
2018-03-28T07:24:53.435Z,32.43
2018-03-28T07:27:21.861Z,30.37
2018-03-28T07:29:50.273Z,30.47
2018-03-28T07:32:18.986Z,33.90
2018-03-28T07:34:47.435Z,32.70
2018-03-28T07:37:15.847Z,30.27
2018-03-28T07:39:44.299Z,31.13
2018-03-28T07:42:12.714Z,32.23
2018-03-28T07:44:41.122Z,31.37
2018-03-28T07:47:09.572Z,34.50
2018-03-28T07:49:37.978Z,31.40
2018-03-28T07:52:06.397Z,31.00
2018-03-28T07:54:34.874Z,32.40
2018-03-28T07:57:03.290Z,32.47
2018-03-28T07:59:31.702Z,32.33
2018-03-28T08:02:00.164Z,32.87
2018-03-28T08:04:28.578Z,32.73
2018-03-28T08:06:56.986Z,31.27
2018-03-28T08:09:25.449Z,33.47
2018-03-28T08:11:53.870Z,32.57
2018-03-28T08:14:22.278Z,32.93
2018-03-28T08:16:50.761Z,30.27
2018-03-28T08:19:19.173Z,30.93
2018-03-28T08:21:47.595Z,32.67
2018-03-28T08:24:16.060Z,33.27
2018-03-28T08:26:44.469Z,34.53
2018-03-28T08:29:12.876Z,32.20
2018-03-28T08:31:41.338Z,33.67
2018-03-28T08:34:09.754Z,32.30
2018-03-28T08:36:38.162Z,32.63
2018-03-28T08:39:06.653Z,35.23
2018-03-28T08:41:35.066Z,33.00
2018-03-28T08:44:03.494Z,33.73
2018-03-28T08:46:31.961Z,32.40
2018-03-28T08:49:00.408Z,35.77
2018-03-28T08:51:28.818Z,34.50
2018-03-28T08:53:57.277Z,32.73
2018-03-28T08:56:25.702Z,34.07
2018-03-28T08:58:54.134Z,32.10
2018-03-28T09:01:22.617Z,33.47
2018-03-28T09:03:51.030Z,33.67
2018-03-28T09:06:19.439Z,31.10
2018-03-28T09:08:47.945Z,28.93
2018-03-28T09:11:16.360Z,30.00
2018-03-28T09:13:44.761Z,31.17
2018-03-28T09:16:13.222Z,28.43
2018-03-28T09:18:41.641Z,31.73
2018-03-28T09:21:10.054Z,30.13
2018-03-28T09:23:38.525Z,30.67
2018-03-28T09:26:06.961Z,30.47
2018-03-28T09:28:35.379Z,29.90
2018-03-28T09:31:03.857Z,30.87
2018-03-28T09:33:32.265Z,30.73
2018-03-28T09:36:00.676Z,32.07
2018-03-28T09:38:29.134Z,31.57
2018-03-28T09:40:57.539Z,32.50
2018-03-28T09:43:25.958Z,30.90
2018-03-28T09:45:54.502Z,30.83
2018-03-28T09:48:22.919Z,30.40
2018-03-28T09:50:51.356Z,30.60
2018-03-28T09:53:19.815Z,31.23
2018-03-28T09:55:48.222Z,30.23
2018-03-28T09:58:16.640Z,30.17
2018-03-28T10:00:45.999Z,31.13
2018-03-28T10:03:14.423Z,29.50
2018-03-28T10:05:42.854Z,30.23
2018-03-28T10:08:11.331Z,29.43
2018-03-28T10:10:39.739Z,33.37
2018-03-28T10:13:08.156Z,29.33
2018-03-28T10:15:36.624Z,30.87
2018-03-28T10:18:05.109Z,30.37
2018-03-28T10:20:33.518Z,29.40
2018-03-28T10:23:02.035Z,30.13
2018-03-28T10:25:30.522Z,30.37
2018-03-28T10:27:59.022Z,28.47
2018-03-28T10:30:27.486Z,31.07
2018-03-28T10:32:55.937Z,30.13
2018-03-28T10:35:24.376Z,30.00
2018-03-28T10:37:52.837Z,29.57
2018-03-28T10:40:21.298Z,30.97
2018-03-28T10:42:49.761Z,29.77
2018-03-28T10:45:18.238Z,29.10
2018-03-28T10:47:46.694Z,26.97
2018-03-28T10:50:15.101Z,29.60
2018-03-28T10:52:43.590Z,29.33
2018-03-28T10:55:12.001Z,28.73
2018-03-28T10:57:40.427Z,29.10
2018-03-28T11:00:08.905Z,31.83
2018-03-28T11:02:37.309Z,30.30
2018-03-28T11:05:05.729Z,31.17
2018-03-28T11:07:34.195Z,29.60
2018-03-28T11:10:02.608Z,31.17
2018-03-28T11:12:31.027Z,29.97
2018-03-28T11:14:59.518Z,30.03
2018-03-28T11:17:27.940Z,30.63
2018-03-28T11:19:56.369Z,29.37
2018-03-28T11:22:24.823Z,31.20
2018-03-28T11:24:53.230Z,29.00
2018-03-28T11:27:21.643Z,31.33
2018-03-28T11:29:50.113Z,30.80
2018-03-28T11:32:18.532Z,30.20
2018-03-28T11:34:46.949Z,29.63
2018-03-28T11:37:15.418Z,31.03
2018-03-28T11:39:43.830Z,31.57
2018-03-28T11:42:12.242Z,29.10
2018-03-28T11:44:40.693Z,31.13
2018-03-28T11:47:09.114Z,29.43
2018-03-28T11:49:37.521Z,31.90
2018-03-28T11:52:05.977Z,31.80
2018-03-28T11:54:34.398Z,29.80
2018-03-28T11:57:02.809Z,28.60
2018-03-28T11:59:31.262Z,29.53
2018-03-28T12:01:59.674Z,30.03
2018-03-28T12:04:28.083Z,29.37
2018-03-28T12:06:56.550Z,31.90
2018-03-28T12:09:24.965Z,33.40
2018-03-28T12:11:53.405Z,32.67
2018-03-28T12:14:21.883Z,30.33
2018-03-28T12:16:50.301Z,31.07
2018-03-28T12:19:18.710Z,26.53
2018-03-28T12:21:47.166Z,28.77
2018-03-28T12:24:15.578Z,29.23
2018-03-28T12:26:43.981Z,28.20
2018-03-28T12:29:12.622Z,30.23
2018-03-28T12:31:41.033Z,25.73
2018-03-28T12:34:09.444Z,26.60
2018-03-28T12:36:37.897Z,24.50
2018-03-28T12:39:06.360Z,25.73
2018-03-28T12:41:34.777Z,24.17
2018-03-28T12:44:03.225Z,26.10
2018-03-28T12:46:31.634Z,24.80
2018-03-28T12:49:00.064Z,23.17
2018-03-28T12:51:28.529Z,23.43
2018-03-28T12:53:56.938Z,21.73
2018-03-28T12:56:25.348Z,25.17
2018-03-28T12:58:53.805Z,22.23
2018-03-28T13:01:22.276Z,21.87
2018-03-28T13:03:50.670Z,22.17
2018-03-28T13:06:19.148Z,23.53
2018-03-28T13:08:47.558Z,20.70
2018-03-28T13:11:15.977Z,22.03
2018-03-28T13:13:44.434Z,23.90
2018-03-28T13:16:12.842Z,24.37
2018-03-28T13:18:41.250Z,23.13
2018-03-28T13:21:09.698Z,21.80
2018-03-28T13:23:38.109Z,20.50
2018-03-28T13:26:06.518Z,21.43
2018-03-28T13:28:34.981Z,24.70
2018-03-28T13:31:03.394Z,25.03
2018-03-28T13:33:31.802Z,23.17
2018-03-28T13:36:00.258Z,25.23
2018-03-28T13:38:28.680Z,23.37
2018-03-28T13:40:57.090Z,25.33
2018-03-28T13:43:25.557Z,25.80
2018-03-28T13:45:53.971Z,25.43
2018-03-28T13:48:22.382Z,25.07
2018-03-28T13:50:50.926Z,25.23
2018-03-28T13:53:19.337Z,24.57
2018-03-28T13:55:47.746Z,26.60
2018-03-28T13:58:16.217Z,26.50
2018-03-28T14:00:44.626Z,25.03
2018-03-28T14:03:13.038Z,27.27
2018-03-28T14:05:41.531Z,27.73
2018-03-28T14:08:09.927Z,27.60
2018-03-28T14:10:38.334Z,27.57
2018-03-28T14:13:06.782Z,28.13
2018-03-28T14:15:35.196Z,28.73
2018-03-28T14:18:03.614Z,28.70
2018-03-28T14:20:32.067Z,30.20
2018-03-28T14:23:00.478Z,29.77
2018-03-28T14:25:28.895Z,29.70
2018-03-28T14:27:57.348Z,29.43
2018-03-28T14:30:25.792Z,27.83
2018-03-28T14:32:54.235Z,27.10
2018-03-28T14:35:22.715Z,28.87
2018-03-28T14:37:51.151Z,27.87
2018-03-28T14:40:19.566Z,29.83
2018-03-28T14:42:54.590Z,31.13
2018-03-28T14:45:16.470Z,30.13
2018-03-28T14:47:44.914Z,33.00
2018-03-28T14:50:13.372Z,33.10
2018-03-28T14:52:41.783Z,32.77
2018-03-28T14:55:10.194Z,32.43
2018-03-28T14:57:38.658Z,33.43
2018-03-28T15:00:07.156Z,34.93
2018-03-28T15:02:35.530Z,35.53
2018-03-28T15:05:04.010Z,35.77
2018-03-28T15:07:32.421Z,34.47
2018-03-28T15:10:00.839Z,33.60
2018-03-28T15:12:29.304Z,37.97
2018-03-28T15:14:57.737Z,36.87
2018-03-28T15:17:26.147Z,37.33
2018-03-28T15:19:54.601Z,36.57
2018-03-28T15:22:23.006Z,36.10
2018-03-28T15:24:51.434Z,34.33
2018-03-28T15:27:19.908Z,38.17
2018-03-28T15:29:48.471Z,38.00
2018-03-28T15:32:16.877Z,38.20
2018-03-28T15:34:45.351Z,39.30
2018-03-28T15:37:13.779Z,39.63
2018-03-28T15:39:42.188Z,40.37
2018-03-28T15:42:10.639Z,37.97
2018-03-28T15:44:39.062Z,42.17
2018-03-28T15:47:07.469Z,38.17
2018-03-28T15:49:35.931Z,38.50
2018-03-28T15:52:04.381Z,39.07
2018-03-28T15:54:32.793Z,43.73
2018-03-28T15:57:01.243Z,55.70
2018-03-28T15:59:34.526Z,50.17
2018-03-28T16:02:02.982Z,43.63
2018-03-28T16:04:31.401Z,41.40
2018-03-28T16:06:59.829Z,40.07
2018-03-28T16:09:28.298Z,39.17
2018-03-28T16:11:56.733Z,36.97
2018-03-28T16:14:25.153Z,35.43
2018-03-28T16:16:53.618Z,37.13
2018-03-28T16:19:22.037Z,40.00
2018-03-28T16:21:50.442Z,40.40
2018-03-28T16:24:18.922Z,36.80
2018-03-28T16:26:47.339Z,38.93
2018-03-28T16:29:15.770Z,38.30
2018-03-28T16:31:44.239Z,39.17
2018-03-28T16:34:12.654Z,39.27
2018-03-28T16:36:41.077Z,37.93
2018-03-28T16:39:09.542Z,36.43
2018-03-28T16:41:37.964Z,36.83
2018-03-28T16:44:06.406Z,36.33
2018-03-28T16:46:34.877Z,36.70
2018-03-28T16:49:03.293Z,37.07
2018-03-28T16:51:31.712Z,38.17
2018-03-28T16:54:00.171Z,35.90
2018-03-28T16:56:28.579Z,37.77
2018-03-28T16:58:56.982Z,36.10
2018-03-28T17:01:25.448Z,33.00
2018-03-28T17:03:53.853Z,36.70
2018-03-28T17:06:22.262Z,35.30
2018-03-28T17:08:50.772Z,32.60
2018-03-28T17:11:19.182Z,36.20
2018-03-28T17:13:47.626Z,37.60
2018-03-28T17:16:16.076Z,36.50
2018-03-28T17:18:44.498Z,32.07
2018-03-28T17:21:12.921Z,35.57
2018-03-28T17:23:41.374Z,33.87
2018-03-28T17:26:09.789Z,33.67
2018-03-28T17:28:38.202Z,30.83
2018-03-28T17:31:06.658Z,32.43
2018-03-28T17:33:35.073Z,30.37
2018-03-28T17:36:03.493Z,30.90
2018-03-28T17:38:31.961Z,38.30
2018-03-28T17:41:00.373Z,37.37
2018-03-28T17:43:28.786Z,34.00
2018-03-28T17:45:57.270Z,30.33
2018-03-28T17:48:25.676Z,29.07
2018-03-28T17:50:54.097Z,30.93
2018-03-28T17:53:22.561Z,29.47
2018-03-28T17:55:50.993Z,26.90
2018-03-28T17:58:19.403Z,25.57
2018-03-28T18:00:47.858Z,27.87
2018-03-28T18:03:16.275Z,26.83
2018-03-28T18:05:44.707Z,27.27
2018-03-28T18:08:13.165Z,26.67
2018-03-28T18:10:41.582Z,29.00
2018-03-28T18:13:09.994Z,28.93
2018-03-28T18:15:38.469Z,29.00
2018-03-28T18:18:06.883Z,29.37
2018-03-28T18:20:35.302Z,30.27
2018-03-28T18:23:03.782Z,29.23
2018-03-28T18:25:32.194Z,30.27
2018-03-28T18:28:00.601Z,31.30
2018-03-28T18:30:29.051Z,31.23
2018-03-28T18:32:57.490Z,32.10
2018-03-28T18:35:25.909Z,33.67
2018-03-28T18:37:54.359Z,33.27
2018-03-28T18:40:22.769Z,33.83
2018-03-28T18:42:51.481Z,33.87
2018-03-28T18:45:19.956Z,35.80
2018-03-28T18:47:48.378Z,34.60
2018-03-28T18:50:16.791Z,32.63
2018-03-28T18:52:45.242Z,32.50
2018-03-28T18:55:13.658Z,30.37
2018-03-28T18:57:42.065Z,32.03
2018-03-28T19:00:10.517Z,33.50
2018-03-28T19:02:38.933Z,35.53
2018-03-28T19:05:07.345Z,32.67
2018-03-28T19:07:35.831Z,33.43
2018-03-28T19:10:04.250Z,33.27
2018-03-28T19:12:32.657Z,33.67
2018-03-28T19:15:01.130Z,32.90
2018-03-28T19:17:29.538Z,32.50
2018-03-28T19:19:57.952Z,30.77
2018-03-28T19:22:26.405Z,31.60
2018-03-28T19:24:54.810Z,31.97
2018-03-28T19:27:23.292Z,31.23
2018-03-28T19:29:51.725Z,29.87
2018-03-28T19:32:20.130Z,30.87
2018-03-28T19:34:48.539Z,29.17
2018-03-28T19:37:17.010Z,28.33
2018-03-28T19:39:45.413Z,30.57
2018-03-28T19:42:13.830Z,28.10
2018-03-28T19:44:42.297Z,30.20
2018-03-28T19:47:10.713Z,28.00
2018-03-28T19:49:39.130Z,30.00
2018-03-28T19:52:07.596Z,29.23
2018-03-28T19:54:36.007Z,30.13
2018-03-28T19:57:04.420Z,29.60
2018-03-28T19:59:32.890Z,32.93
2018-03-28T20:02:01.309Z,29.47
2018-03-28T20:04:29.730Z,30.60
2018-03-28T20:06:58.196Z,31.67
2018-03-28T20:09:26.614Z,34.60
2018-03-28T20:11:55.038Z,32.53
2018-03-28T20:14:23.513Z,34.27
2018-03-28T20:16:51.921Z,32.13
2018-03-28T20:19:20.333Z,32.33
2018-03-28T20:21:48.798Z,33.03
2018-03-28T20:24:17.209Z,33.40
2018-03-28T20:26:45.619Z,31.67
2018-03-28T20:29:14.075Z,32.33
2018-03-28T20:31:42.481Z,30.60
2018-03-28T20:34:10.886Z,32.60
2018-03-28T20:36:39.357Z,32.70
2018-03-28T20:39:07.789Z,35.27
2018-03-28T20:41:36.210Z,33.87
2018-03-28T20:44:04.878Z,36.63
2018-03-28T20:46:33.286Z,32.70
2018-03-28T20:49:01.706Z,32.80
2018-03-28T20:51:30.167Z,31.07
2018-03-28T20:53:58.591Z,32.90
2018-03-28T20:56:27.005Z,29.77
2018-03-28T20:58:55.474Z,31.87
2018-03-28T21:01:23.902Z,29.90
2018-03-28T21:03:52.330Z,33.57
2018-03-28T21:06:20.789Z,29.87
2018-03-28T21:08:49.214Z,32.27
2018-03-28T21:11:17.633Z,29.90
2018-03-28T21:13:46.086Z,28.40
2018-03-28T21:16:14.522Z,30.50
2018-03-28T21:18:42.929Z,28.73
2018-03-28T21:21:11.394Z,27.23
2018-03-28T21:23:39.805Z,24.80
2018-03-28T21:26:08.247Z,25.33
2018-03-28T21:28:36.708Z,23.00
2018-03-28T21:31:05.149Z,23.40
2018-03-28T21:33:33.565Z,22.37
2018-03-28T21:36:02.022Z,21.67
2018-03-28T21:38:30.431Z,20.13
2018-03-28T21:40:58.849Z,19.97
2018-03-28T21:43:27.309Z,20.07
2018-03-28T21:45:55.717Z,19.33
2018-03-28T21:48:24.125Z,19.90
2018-03-28T21:50:52.604Z,19.77
2018-03-28T21:53:21.014Z,20.13
2018-03-28T21:55:49.425Z,18.67
2018-03-28T21:58:17.877Z,17.63
2018-03-28T22:00:46.285Z,18.20
2018-03-28T22:03:14.698Z,19.37
2018-03-28T22:05:43.333Z,19.33
2018-03-28T22:08:11.744Z,18.77
2018-03-28T22:10:40.154Z,19.23
2018-03-28T22:13:08.609Z,18.87
2018-03-28T22:15:37.026Z,18.03
2018-03-28T22:18:05.462Z,18.97
2018-03-28T22:20:33.938Z,18.13
2018-03-28T22:23:02.357Z,20.33
2018-03-28T22:25:30.770Z,19.17
2018-03-28T22:27:59.225Z,19.60
2018-03-28T22:30:27.640Z,18.73
2018-03-28T22:32:56.050Z,18.03
2018-03-28T22:35:24.522Z,18.83
2018-03-28T22:37:52.922Z,19.30
2018-03-28T22:40:21.335Z,18.10
2018-03-28T22:42:49.794Z,17.17
2018-03-28T22:45:18.201Z,16.07
2018-03-28T22:47:46.614Z,11.20
2018-03-28T22:50:15.082Z,14.13
2018-03-28T22:52:43.498Z,11.70
2018-03-28T22:55:11.917Z,12.77
2018-03-28T22:57:40.369Z,9.67
2018-03-28T23:00:08.832Z,9.87
2018-03-28T23:02:37.241Z,8.40
2018-03-28T23:05:05.703Z,8.63
2018-03-28T23:07:34.101Z,8.80
2018-03-28T23:10:02.503Z,9.03
2018-03-28T23:12:30.970Z,9.07
2018-03-28T23:14:59.389Z,10.57
2018-03-28T23:17:27.834Z,11.77
2018-03-28T23:19:56.302Z,11.47
2018-03-28T23:22:36.434Z,12.33
2018-03-28T23:25:04.955Z,13.43
2018-03-28T23:27:33.385Z,12.57
2018-03-28T23:30:01.814Z,12.77
2018-03-28T23:32:30.282Z,13.40
2018-03-28T23:34:58.698Z,11.63
2018-03-28T23:37:27.118Z,10.87
2018-03-28T23:39:55.585Z,10.20
2018-03-28T23:42:24.030Z,8.60
2018-03-28T23:44:52.430Z,8.30
2018-03-28T23:47:20.885Z,7.77
2018-03-28T23:49:49.278Z,8.13
2018-03-28T23:52:17.686Z,8.60
2018-03-28T23:54:46.138Z,9.80
2018-03-28T23:57:14.534Z,8.97
2018-03-28T23:59:42.939Z,9.00
